createdAt,value
2023-10-30T07:47:08.164Z,21.61
2023-10-30T07:47:26.425Z,21.63
2023-10-30T07:47:43.195Z,21.65
2023-10-30T07:47:44.768Z,21.68
2023-10-30T07:47:54.313Z,21.71
2023-10-30T07:48:05.869Z,21.72
2023-10-30T07:48:17.294Z,21.74
2023-10-30T07:48:28.914Z,21.75
2023-10-30T07:48:40.224Z,21.77
2023-10-30T07:48:51.781Z,21.79
2023-10-30T07:49:03.121Z,21.79
2023-10-30T07:49:14.731Z,21.81
2023-10-30T07:49:26.004Z,21.81
2023-10-30T07:49:37.503Z,21.83
2023-10-30T07:49:48.878Z,21.84
2023-10-30T07:50:00.420Z,21.85
2023-10-30T07:50:11.693Z,21.85
2023-10-30T07:50:23.373Z,21.86
2023-10-30T07:50:34.651Z,21.86
2023-10-30T07:50:46.186Z,21.87
2023-10-30T07:50:57.448Z,21.88
2023-10-30T07:51:09.036Z,21.88
2023-10-30T07:51:20.376Z,21.89
2023-10-30T07:51:32.143Z,21.90
2023-10-30T07:51:43.826Z,21.90
2023-10-30T07:51:55.487Z,21.91
2023-10-30T07:52:06.803Z,21.92
2023-10-30T07:52:18.342Z,21.92
2023-10-30T07:52:29.741Z,21.92
2023-10-30T07:52:43.453Z,21.93
2023-10-30T07:52:52.989Z,21.93
2023-10-30T07:53:04.537Z,21.94
2023-10-30T07:53:15.831Z,21.95
2023-10-30T07:53:27.355Z,21.95
2023-10-30T07:53:38.636Z,21.95
2023-10-30T07:53:50.168Z,21.96
2023-10-30T07:54:01.441Z,21.96
2023-10-30T07:54:12.964Z,21.96
2023-10-30T07:54:24.316Z,21.97
2023-10-30T07:54:35.954Z,21.97
2023-10-30T07:54:47.378Z,21.97
2023-10-30T07:54:59.084Z,21.98
2023-10-30T07:55:10.375Z,21.98
2023-10-30T07:55:21.888Z,21.99
2023-10-30T07:55:33.208Z,21.99
2023-10-30T07:55:44.733Z,22.00
2023-10-30T07:55:56.126Z,22.00
2023-10-30T07:56:07.630Z,21.99
2023-10-30T07:56:18.895Z,22.00
2023-10-30T07:56:30.423Z,22.00
2023-10-30T07:56:41.727Z,22.00
2023-10-30T07:56:53.252Z,22.01
2023-10-30T07:57:04.553Z,22.01
2023-10-30T07:57:16.093Z,22.02
2023-10-30T07:57:27.377Z,22.01
2023-10-30T07:57:39.013Z,22.02
2023-10-30T07:57:50.344Z,22.02
2023-10-30T07:58:01.896Z,22.02
2023-10-30T07:58:13.206Z,22.02
2023-10-30T07:58:24.741Z,22.02
2023-10-30T07:58:36.003Z,22.02
2023-10-30T07:58:47.542Z,22.03
2023-10-30T07:58:58.783Z,22.02
2023-10-30T07:59:10.330Z,22.03
2023-10-30T07:59:21.593Z,22.03
2023-10-30T07:59:33.144Z,22.03
2023-10-30T07:59:44.413Z,22.03
2023-10-30T07:59:55.968Z,22.04
2023-10-30T08:00:07.246Z,22.04
2023-10-30T08:00:18.866Z,22.04
2023-10-30T08:00:32.711Z,22.04
2023-10-30T08:00:55.279Z,22.02
2023-10-30T08:00:58.977Z,22.02
2023-10-30T08:01:06.165Z,22.02
2023-10-30T08:01:17.614Z,22.03
2023-10-30T08:01:29.194Z,22.04
2023-10-30T08:01:40.618Z,22.04
2023-10-30T08:01:52.266Z,22.05
2023-10-30T08:02:03.628Z,22.05
2023-10-30T08:02:15.217Z,22.05
2023-10-30T08:02:26.551Z,22.05
2023-10-30T08:02:38.171Z,22.06
2023-10-30T08:02:49.546Z,22.06
2023-10-30T08:03:01.242Z,22.06
2023-10-30T08:03:12.588Z,22.07
2023-10-30T08:03:24.301Z,22.07
2023-10-30T08:03:35.781Z,22.06
2023-10-30T08:03:47.347Z,22.06
2023-10-30T08:03:58.802Z,22.06
2023-10-30T08:04:10.447Z,22.07
2023-10-30T08:04:21.901Z,22.07
2023-10-30T08:04:33.489Z,22.07
2023-10-30T08:04:44.768Z,22.08
2023-10-30T08:04:56.318Z,22.08
2023-10-30T08:05:07.625Z,22.08
2023-10-30T08:05:19.159Z,22.08
2023-10-30T08:05:31.059Z,22.08
2023-10-30T08:05:42.704Z,22.09
2023-10-30T08:05:53.974Z,22.08
2023-10-30T08:06:05.486Z,22.09
2023-10-30T08:06:16.773Z,22.09
2023-10-30T08:06:28.404Z,22.10
2023-10-30T08:06:39.700Z,22.10
2023-10-30T08:06:51.277Z,22.10
2023-10-30T08:07:02.547Z,22.10
2023-10-30T08:07:14.071Z,22.10
2023-10-30T08:07:25.342Z,22.10
2023-10-30T08:07:36.871Z,22.11
2023-10-30T08:07:48.179Z,22.11
2023-10-30T08:07:59.720Z,22.11
2023-10-30T08:08:12.230Z,22.11
2023-10-30T08:08:21.434Z,22.10
2023-10-30T08:08:32.992Z,22.11
2023-10-30T08:08:44.284Z,22.11
2023-10-30T08:08:55.805Z,22.12
2023-10-30T08:09:07.091Z,22.12
2023-10-30T08:09:18.714Z,22.12
2023-10-30T08:09:29.996Z,22.12
2023-10-30T08:09:41.595Z,22.12
2023-10-30T08:09:52.937Z,22.13
2023-10-30T08:10:04.540Z,22.13
2023-10-30T08:10:15.814Z,22.13
2023-10-30T08:10:27.446Z,22.13
2023-10-30T08:10:38.742Z,22.13
2023-10-30T08:10:50.325Z,22.14
2023-10-30T08:11:01.586Z,22.13
2023-10-30T08:11:13.128Z,22.14
2023-10-30T08:11:24.408Z,22.14
2023-10-30T08:11:35.928Z,22.14
2023-10-30T08:11:47.196Z,22.14
2023-10-30T08:11:58.721Z,22.15
2023-10-30T08:12:09.992Z,22.15
2023-10-30T08:12:21.599Z,22.15
2023-10-30T08:12:32.888Z,22.15
2023-10-30T08:12:44.436Z,22.16
2023-10-30T08:12:55.782Z,22.16
2023-10-30T08:13:07.300Z,22.16
2023-10-30T08:13:18.566Z,22.16
2023-10-30T08:13:30.180Z,22.16
2023-10-30T08:13:41.436Z,22.16
2023-10-30T08:13:52.957Z,22.16
2023-10-30T08:14:04.221Z,22.16
2023-10-30T08:14:15.752Z,22.16
2023-10-30T08:14:27.015Z,22.17
2023-10-30T08:14:38.558Z,22.17
2023-10-30T08:14:50.045Z,22.17
2023-10-30T08:15:01.712Z,22.17
2023-10-30T08:15:13.052Z,22.18
2023-10-30T08:15:24.572Z,22.17
2023-10-30T08:15:35.864Z,22.18
2023-10-30T08:15:47.387Z,22.18
2023-10-30T08:15:58.707Z,22.19
2023-10-30T08:16:10.218Z,22.18
2023-10-30T08:16:21.497Z,22.18
2023-10-30T08:16:33.424Z,22.18
2023-10-30T08:16:44.748Z,22.19
2023-10-30T08:16:56.319Z,22.19
2023-10-30T08:17:07.553Z,22.19
2023-10-30T08:17:19.088Z,22.19
2023-10-30T08:17:30.358Z,22.19
2023-10-30T08:17:41.935Z,22.20
2023-10-30T08:17:53.200Z,22.20
2023-10-30T08:18:04.840Z,22.20
2023-10-30T08:18:16.200Z,22.20
2023-10-30T08:18:28.606Z,22.21
2023-10-30T08:18:37.788Z,22.21
2023-10-30T08:18:49.300Z,22.21
2023-10-30T08:19:00.609Z,22.21
2023-10-30T08:19:12.161Z,22.21
2023-10-30T08:19:23.443Z,22.21
2023-10-30T08:19:34.991Z,22.21
2023-10-30T08:19:46.274Z,22.22
2023-10-30T08:19:57.783Z,22.21
2023-10-30T08:20:09.100Z,22.22
2023-10-30T08:20:20.619Z,22.22
2023-10-30T08:20:31.884Z,22.22
2023-10-30T08:20:43.439Z,22.23
2023-10-30T08:20:55.261Z,22.23
2023-10-30T08:21:08.046Z,22.22
2023-10-30T08:21:17.699Z,22.21
2023-10-30T08:21:29.306Z,22.22
2023-10-30T08:21:40.574Z,22.23
2023-10-30T08:21:52.100Z,22.24
2023-10-30T08:22:03.396Z,22.23
2023-10-30T08:22:14.950Z,22.24
2023-10-30T08:22:26.206Z,22.24
2023-10-30T08:22:37.733Z,22.24
2023-10-30T08:22:49.005Z,22.24
2023-10-30T08:23:00.540Z,22.24
2023-10-30T08:23:11.797Z,22.24
2023-10-30T08:23:23.321Z,22.25
2023-10-30T08:23:34.641Z,22.24
2023-10-30T08:23:46.154Z,22.25
2023-10-30T08:23:57.410Z,22.24
2023-10-30T08:24:08.943Z,22.26
2023-10-30T08:24:20.226Z,22.26
2023-10-30T08:24:31.798Z,22.26
2023-10-30T08:24:43.159Z,22.26
2023-10-30T08:24:54.735Z,22.25
2023-10-30T08:25:06.010Z,22.26
2023-10-30T08:25:17.544Z,22.26
2023-10-30T08:25:28.823Z,22.27
2023-10-30T08:25:40.347Z,22.27
2023-10-30T08:25:51.610Z,22.27
2023-10-30T08:26:03.158Z,22.28
2023-10-30T08:26:14.416Z,22.27
2023-10-30T08:26:25.963Z,22.28
2023-10-30T08:26:37.217Z,22.27
2023-10-30T08:26:48.806Z,22.29
2023-10-30T08:27:00.086Z,22.28
2023-10-30T08:27:11.625Z,22.28
2023-10-30T08:27:22.916Z,22.28
2023-10-30T08:27:34.468Z,22.29
2023-10-30T08:27:45.756Z,22.29
2023-10-30T08:27:57.382Z,22.29
2023-10-30T08:28:08.667Z,22.29
2023-10-30T08:28:20.201Z,22.29
2023-10-30T08:28:31.472Z,22.29
2023-10-30T08:28:42.999Z,22.29
2023-10-30T08:28:54.270Z,22.30
2023-10-30T08:29:05.934Z,22.30
2023-10-30T08:29:17.230Z,22.30
2023-10-30T08:29:28.775Z,22.31
2023-10-30T08:29:40.046Z,22.31
2023-10-30T08:29:51.570Z,22.31
2023-10-30T08:30:02.831Z,22.31
2023-10-30T08:30:14.343Z,22.31
2023-10-30T08:30:25.789Z,22.31
2023-10-30T08:30:37.378Z,22.31
2023-10-30T08:30:48.710Z,22.31
2023-10-30T08:31:00.315Z,22.31
2023-10-30T08:31:11.665Z,22.32
2023-10-30T08:31:23.207Z,22.33
2023-10-30T08:31:34.536Z,22.32
2023-10-30T08:31:46.367Z,22.32
2023-10-30T08:31:57.649Z,22.32
2023-10-30T08:32:09.197Z,22.33
2023-10-30T08:32:20.472Z,22.33
2023-10-30T08:32:32.086Z,22.33
2023-10-30T08:32:43.403Z,22.33
2023-10-30T08:32:55.028Z,22.33
2023-10-30T08:33:07.071Z,22.34
2023-10-30T08:33:18.353Z,22.34
2023-10-30T08:33:30.100Z,22.33
2023-10-30T08:33:41.425Z,22.33
2023-10-30T08:33:53.088Z,22.34
2023-10-30T08:34:04.360Z,22.34
2023-10-30T08:34:15.903Z,22.34
2023-10-30T08:34:27.212Z,22.34
2023-10-30T08:34:38.726Z,22.34
2023-10-30T08:34:50.213Z,22.35
2023-10-30T08:35:01.884Z,22.34
2023-10-30T08:35:13.213Z,22.35
2023-10-30T08:35:24.743Z,22.35
2023-10-30T08:35:35.989Z,22.35
2023-10-30T08:35:47.623Z,22.35
2023-10-30T08:35:58.890Z,22.35
2023-10-30T08:36:10.477Z,22.36
2023-10-30T08:36:21.779Z,22.35
2023-10-30T08:36:33.350Z,22.35
2023-10-30T08:36:44.681Z,22.36
2023-10-30T08:36:56.286Z,22.36
2023-10-30T08:37:07.799Z,22.36
2023-10-30T08:37:19.317Z,22.36
2023-10-30T08:37:30.634Z,22.37
2023-10-30T08:37:42.147Z,22.36
2023-10-30T08:37:53.406Z,22.37
2023-10-30T08:38:04.986Z,22.37
2023-10-30T08:38:16.235Z,22.37
2023-10-30T08:38:27.762Z,22.36
2023-10-30T08:38:39.041Z,22.38
2023-10-30T08:38:51.893Z,22.38
2023-10-30T08:39:02.633Z,22.37
2023-10-30T08:39:14.155Z,22.38
2023-10-30T08:39:25.474Z,22.37
2023-10-30T08:39:37.063Z,22.38
2023-10-30T08:39:48.557Z,22.38
2023-10-30T08:40:00.376Z,22.38
2023-10-30T08:40:11.650Z,22.39
2023-10-30T08:40:23.187Z,22.38
2023-10-30T08:40:35.141Z,22.39
2023-10-30T08:40:46.671Z,22.39
2023-10-30T08:40:57.933Z,22.39
2023-10-30T08:41:09.468Z,22.39
2023-10-30T08:41:20.938Z,22.38
2023-10-30T08:41:32.486Z,22.39
2023-10-30T08:41:43.736Z,22.39
2023-10-30T08:41:55.251Z,22.40
2023-10-30T08:42:06.523Z,22.40
2023-10-30T08:42:18.095Z,22.40
2023-10-30T08:42:29.477Z,22.40
2023-10-30T08:42:41.171Z,22.40
2023-10-30T08:42:52.506Z,22.40
2023-10-30T08:43:04.106Z,22.41
2023-10-30T08:43:15.433Z,22.41
2023-10-30T08:43:26.964Z,22.41
2023-10-30T08:43:38.219Z,22.41
2023-10-30T08:43:51.345Z,22.42
2023-10-30T08:44:00.217Z,22.41
2023-10-30T08:44:11.550Z,22.41
2023-10-30T08:44:26.020Z,22.42
2023-10-30T08:44:33.892Z,22.41
2023-10-30T08:44:45.140Z,22.41
2023-10-30T08:44:56.656Z,22.42
2023-10-30T08:45:07.916Z,22.42
2023-10-30T08:45:19.484Z,22.42
2023-10-30T08:45:30.770Z,22.42
2023-10-30T08:45:42.340Z,22.43
2023-10-30T08:45:53.658Z,22.43
2023-10-30T08:46:05.258Z,22.43
2023-10-30T08:46:16.559Z,22.44
2023-10-30T08:46:28.107Z,22.44
2023-10-30T08:46:39.442Z,22.44
2023-10-30T08:46:50.987Z,22.44
2023-10-30T08:47:02.274Z,22.44
2023-10-30T08:47:13.800Z,22.44
2023-10-30T08:47:25.144Z,22.45
2023-10-30T08:47:36.801Z,22.44
2023-10-30T08:47:48.074Z,22.45
2023-10-30T08:48:12.227Z,22.45
2023-10-30T08:48:18.606Z,22.44
2023-10-30T08:48:23.553Z,22.43
2023-10-30T08:48:34.909Z,22.44
2023-10-30T08:48:46.556Z,22.45
2023-10-30T08:48:57.996Z,22.45
2023-10-30T08:49:09.600Z,22.46
2023-10-30T08:49:20.852Z,22.46
2023-10-30T08:49:32.375Z,22.46
2023-10-30T08:49:43.765Z,22.46
2023-10-30T08:49:55.288Z,22.47
2023-10-30T08:50:06.553Z,22.47
2023-10-30T08:50:18.072Z,22.47
2023-10-30T08:50:29.436Z,22.47
2023-10-30T08:50:40.985Z,22.47
2023-10-30T08:50:52.255Z,22.47
2023-10-30T08:51:03.772Z,22.47
2023-10-30T08:51:15.112Z,22.47
2023-10-30T08:51:26.702Z,22.47
2023-10-30T08:51:39.018Z,22.48
2023-10-30T08:52:00.690Z,22.47
2023-10-30T08:52:04.524Z,22.45
2023-10-30T08:52:12.067Z,22.45
2023-10-30T08:52:23.395Z,22.46
2023-10-30T08:52:34.947Z,22.47
2023-10-30T08:52:46.239Z,22.47
2023-10-30T08:52:57.788Z,22.48
2023-10-30T08:53:09.047Z,22.49
2023-10-30T08:53:20.626Z,22.49
2023-10-30T08:53:31.969Z,22.49
2023-10-30T08:53:43.532Z,22.49
2023-10-30T08:53:54.880Z,22.49
2023-10-30T08:54:06.449Z,22.50
2023-10-30T08:54:17.690Z,22.50
2023-10-30T08:54:29.279Z,22.50
2023-10-30T08:54:40.707Z,22.50
2023-10-30T08:54:52.361Z,22.50
2023-10-30T08:55:03.612Z,22.50
2023-10-30T08:55:15.115Z,22.51
2023-10-30T08:55:26.387Z,22.50
2023-10-30T08:55:37.950Z,22.51
2023-10-30T08:55:49.259Z,22.51
2023-10-30T08:56:02.392Z,22.52
2023-10-30T08:56:12.650Z,22.51
2023-10-30T08:56:24.148Z,22.52
2023-10-30T08:56:35.420Z,22.52
2023-10-30T08:56:47.272Z,22.52
2023-10-30T08:57:10.860Z,22.52
2023-10-30T08:57:17.292Z,22.50
2023-10-30T08:57:22.562Z,22.50
2023-10-30T08:57:33.843Z,22.51
2023-10-30T08:57:45.380Z,22.52
2023-10-30T08:57:56.657Z,22.52
2023-10-30T08:58:08.195Z,22.53
2023-10-30T08:58:19.443Z,22.52
2023-10-30T08:58:30.970Z,22.53
2023-10-30T08:58:42.245Z,22.53
2023-10-30T08:58:53.793Z,22.53
2023-10-30T08:59:05.090Z,22.54
2023-10-30T08:59:16.616Z,22.54
2023-10-30T08:59:27.896Z,22.54
2023-10-30T08:59:39.455Z,22.53
2023-10-30T08:59:50.900Z,22.54
2023-10-30T09:00:02.537Z,22.55
2023-10-30T09:00:13.794Z,22.54
2023-10-30T09:00:25.365Z,22.54
2023-10-30T09:00:36.637Z,22.55
2023-10-30T09:00:48.179Z,22.54
2023-10-30T09:00:59.475Z,22.55
2023-10-30T09:01:10.979Z,22.55
2023-10-30T09:01:22.296Z,22.56
2023-10-30T09:01:33.812Z,22.56
2023-10-30T09:01:45.097Z,22.56
2023-10-30T09:01:56.651Z,22.55
2023-10-30T09:02:07.920Z,22.56
2023-10-30T09:02:19.449Z,22.56
2023-10-30T09:02:30.701Z,22.57
2023-10-30T09:02:42.263Z,22.57
2023-10-30T09:02:53.697Z,22.57
2023-10-30T09:03:05.380Z,22.57
2023-10-30T09:03:16.802Z,22.57
2023-10-30T09:03:28.546Z,22.57
2023-10-30T09:03:40.173Z,22.57
2023-10-30T09:03:51.857Z,22.57
2023-10-30T09:04:03.323Z,22.57
2023-10-30T09:04:15.012Z,22.58
2023-10-30T09:04:26.438Z,22.58
2023-10-30T09:04:38.424Z,22.58
2023-10-30T09:04:50.288Z,22.59
2023-10-30T09:05:01.984Z,22.58
2023-10-30T09:05:13.887Z,22.59
2023-10-30T09:05:25.555Z,22.58
2023-10-30T09:05:37.267Z,22.58
2023-10-30T09:05:48.894Z,22.58
2023-10-30T09:06:00.700Z,22.59
2023-10-30T09:06:12.310Z,22.59
2023-10-30T09:06:24.128Z,22.59
2023-10-30T09:06:35.657Z,22.59
2023-10-30T09:06:47.316Z,22.59
2023-10-30T09:06:58.610Z,22.59
2023-10-30T09:07:10.229Z,22.59
2023-10-30T09:07:21.462Z,22.60
2023-10-30T09:07:33.017Z,22.60
2023-10-30T09:07:44.287Z,22.60
2023-10-30T09:07:55.825Z,22.61
2023-10-30T09:08:07.090Z,22.60
2023-10-30T09:08:18.636Z,22.61
2023-10-30T09:08:29.896Z,22.61
2023-10-30T09:08:41.437Z,22.61
2023-10-30T09:08:52.731Z,22.62
2023-10-30T09:09:04.252Z,22.62
2023-10-30T09:09:15.523Z,22.62
2023-10-30T09:09:27.039Z,22.62
2023-10-30T09:09:38.357Z,22.62
2023-10-30T09:09:50.100Z,22.63
2023-10-30T09:10:01.507Z,22.63
2023-10-30T09:10:13.012Z,22.63
2023-10-30T09:10:24.320Z,22.62
2023-10-30T09:10:35.880Z,22.62
2023-10-30T09:10:47.196Z,22.63
2023-10-30T09:10:58.736Z,22.63
2023-10-30T09:11:09.998Z,22.63
2023-10-30T09:11:21.513Z,22.63
2023-10-30T09:11:32.810Z,22.64
2023-10-30T09:11:44.345Z,22.64
2023-10-30T09:11:55.653Z,22.64
2023-10-30T09:12:07.208Z,22.65
2023-10-30T09:12:18.456Z,22.64
2023-10-30T09:12:30.038Z,22.65
2023-10-30T09:12:41.391Z,22.65
2023-10-30T09:12:53.007Z,22.65
2023-10-30T09:13:04.305Z,22.65
2023-10-30T09:13:15.884Z,22.66
2023-10-30T09:13:27.192Z,22.66
2023-10-30T09:13:38.735Z,22.65
2023-10-30T09:13:50.031Z,22.66
2023-10-30T09:14:01.524Z,22.66
2023-10-30T09:14:12.827Z,22.66
2023-10-30T09:14:25.737Z,22.67
2023-10-30T09:14:35.698Z,22.66
2023-10-30T09:14:47.315Z,22.67
2023-10-30T09:14:58.570Z,22.67
2023-10-30T09:15:10.112Z,22.68
2023-10-30T09:15:21.543Z,22.68
2023-10-30T09:15:33.120Z,22.68
2023-10-30T09:15:44.506Z,22.68
2023-10-30T09:15:56.186Z,22.68
2023-10-30T09:16:07.684Z,22.68
2023-10-30T09:16:19.348Z,22.68
2023-10-30T09:16:30.683Z,22.68
2023-10-30T09:16:42.261Z,22.69
2023-10-30T09:16:53.559Z,22.69
2023-10-30T09:17:05.099Z,22.70
2023-10-30T09:17:16.365Z,22.70
2023-10-30T09:17:27.983Z,22.70
2023-10-30T09:17:39.263Z,22.70
2023-10-30T09:17:50.872Z,22.70
2023-10-30T09:18:02.249Z,22.70
2023-10-30T09:18:13.777Z,22.71
2023-10-30T09:18:25.163Z,22.71
2023-10-30T09:18:36.747Z,22.72
2023-10-30T09:18:48.097Z,22.71
2023-10-30T09:18:59.698Z,22.71
2023-10-30T09:19:11.006Z,22.71
2023-10-30T09:19:22.522Z,22.72
2023-10-30T09:19:34.036Z,22.73
2023-10-30T09:19:45.774Z,22.72
2023-10-30T09:19:57.038Z,22.73
2023-10-30T09:20:08.581Z,22.74
2023-10-30T09:20:19.823Z,22.73
2023-10-30T09:20:31.383Z,22.74
2023-10-30T09:20:42.633Z,22.75
2023-10-30T09:20:54.165Z,22.75
2023-10-30T09:21:05.432Z,22.75
2023-10-30T09:21:16.953Z,22.76
2023-10-30T09:21:28.230Z,22.76
2023-10-30T09:21:39.763Z,22.76
2023-10-30T09:21:51.403Z,22.77
2023-10-30T09:22:01.520Z,22.76
2023-10-30T09:22:13.113Z,22.78
2023-10-30T09:22:24.394Z,22.78
2023-10-30T09:22:35.912Z,22.79
2023-10-30T09:22:47.173Z,22.79
2023-10-30T09:22:58.702Z,22.80
2023-10-30T09:23:09.954Z,22.80
2023-10-30T09:23:21.522Z,22.80
2023-10-30T09:23:32.786Z,22.81
2023-10-30T09:23:44.334Z,22.81
2023-10-30T09:23:55.578Z,22.82
2023-10-30T09:24:07.113Z,22.82
2023-10-30T09:24:18.433Z,22.82
2023-10-30T09:24:29.995Z,22.82
2023-10-30T09:24:41.322Z,22.83
2023-10-30T09:24:52.936Z,22.82
2023-10-30T09:25:04.214Z,22.83
2023-10-30T09:25:15.749Z,22.84
2023-10-30T09:25:26.995Z,22.85
2023-10-30T09:25:38.559Z,22.84
2023-10-30T09:25:49.842Z,22.85
2023-10-30T09:26:01.371Z,22.85
2023-10-30T09:26:12.636Z,22.85
2023-10-30T09:26:24.154Z,22.86
2023-10-30T09:26:35.418Z,22.86
2023-10-30T09:26:46.951Z,22.86
2023-10-30T09:26:58.228Z,22.86
2023-10-30T09:27:09.818Z,22.87
2023-10-30T09:27:21.138Z,22.87
2023-10-30T09:27:33.257Z,22.87
2023-10-30T09:27:44.935Z,22.88
2023-10-30T09:27:56.379Z,22.88
2023-10-30T09:28:07.982Z,22.88
2023-10-30T09:28:19.361Z,22.88
2023-10-30T09:28:30.926Z,22.89
2023-10-30T09:28:42.312Z,22.88
2023-10-30T09:28:53.852Z,22.89
2023-10-30T09:29:05.107Z,22.89
2023-10-30T09:29:16.643Z,22.90
2023-10-30T09:29:27.918Z,22.90
2023-10-30T09:29:39.467Z,22.90
2023-10-30T09:29:50.994Z,22.91
2023-10-30T09:30:02.844Z,22.90
2023-10-30T09:30:14.103Z,22.91
2023-10-30T09:30:25.645Z,22.91
2023-10-30T09:30:36.912Z,22.91
2023-10-30T09:30:48.460Z,22.92
2023-10-30T09:30:59.897Z,22.92
2023-10-30T09:31:11.450Z,22.93
2023-10-30T09:31:22.831Z,22.93
2023-10-30T09:31:34.578Z,22.93
2023-10-30T09:31:45.940Z,22.93
2023-10-30T09:31:57.461Z,22.93
2023-10-30T09:32:08.726Z,22.94
2023-10-30T09:32:20.277Z,22.94
2023-10-30T09:32:31.599Z,22.94
2023-10-30T09:32:43.149Z,22.94
2023-10-30T09:32:54.516Z,22.94
2023-10-30T09:33:06.081Z,22.94
2023-10-30T09:33:17.422Z,22.94
2023-10-30T09:33:29.392Z,22.95
2023-10-30T09:33:40.713Z,22.95
2023-10-30T09:33:52.253Z,22.95
2023-10-30T09:34:03.526Z,22.96
2023-10-30T09:34:15.069Z,22.96
2023-10-30T09:34:26.444Z,22.96
2023-10-30T09:34:37.983Z,22.96
2023-10-30T09:34:49.251Z,22.97
2023-10-30T09:35:00.831Z,22.96
2023-10-30T09:35:12.087Z,22.97
2023-10-30T09:35:23.612Z,22.97
2023-10-30T09:35:34.868Z,22.97
2023-10-30T09:35:46.404Z,22.98
2023-10-30T09:35:57.648Z,22.97
2023-10-30T09:36:09.283Z,22.98
2023-10-30T09:36:20.577Z,22.98
2023-10-30T09:36:32.120Z,22.98
2023-10-30T09:36:43.369Z,22.98
2023-10-30T09:36:54.929Z,22.99
2023-10-30T09:37:06.169Z,22.98
2023-10-30T09:37:17.699Z,22.99
2023-10-30T09:37:28.984Z,22.99
2023-10-30T09:37:40.508Z,23.00
2023-10-30T09:37:51.770Z,22.99
2023-10-30T09:38:03.297Z,23.00
2023-10-30T09:38:14.561Z,23.00
2023-10-30T09:38:26.082Z,23.00
2023-10-30T09:38:37.349Z,23.01
2023-10-30T09:38:48.865Z,23.01
2023-10-30T09:39:00.128Z,23.01
2023-10-30T09:39:11.675Z,23.01
2023-10-30T09:39:23.006Z,23.01
2023-10-30T09:39:34.593Z,23.02
2023-10-30T09:39:45.920Z,23.02
2023-10-30T09:39:57.519Z,23.02
2023-10-30T09:40:08.760Z,23.02
2023-10-30T09:40:20.322Z,23.03
2023-10-30T09:40:31.584Z,23.03
2023-10-30T09:40:43.089Z,23.03
2023-10-30T09:40:54.359Z,23.03
2023-10-30T09:41:05.881Z,23.04
2023-10-30T09:41:17.154Z,23.04
2023-10-30T09:41:28.718Z,23.04
2023-10-30T09:41:39.975Z,23.04
2023-10-30T09:41:51.549Z,23.04
2023-10-30T09:42:02.813Z,23.05
2023-10-30T09:42:14.342Z,23.05
2023-10-30T09:42:25.665Z,23.05
2023-10-30T09:42:37.265Z,23.04
2023-10-30T09:42:48.541Z,23.06
2023-10-30T09:43:00.147Z,23.07
2023-10-30T09:43:13.798Z,23.06
2023-10-30T09:43:21.736Z,23.04
2023-10-30T09:43:33.009Z,23.06
2023-10-30T09:43:44.542Z,23.06
2023-10-30T09:43:55.813Z,23.07
2023-10-30T09:44:07.348Z,23.07
2023-10-30T09:44:18.605Z,23.07
2023-10-30T09:44:30.137Z,23.08
2023-10-30T09:44:41.430Z,23.08
2023-10-30T09:44:52.961Z,23.08
2023-10-30T09:45:04.215Z,23.09
2023-10-30T09:45:15.764Z,23.08
2023-10-30T09:45:27.100Z,23.09
2023-10-30T09:45:38.733Z,23.09
2023-10-30T09:45:50.208Z,23.10
2023-10-30T09:46:01.804Z,23.10
2023-10-30T09:46:13.225Z,23.10
2023-10-30T09:46:24.858Z,23.11
2023-10-30T09:46:36.242Z,23.11
2023-10-30T09:46:47.924Z,23.11
2023-10-30T09:46:59.205Z,23.11
2023-10-30T09:47:10.712Z,23.11
2023-10-30T09:47:21.965Z,23.12
2023-10-30T09:47:33.578Z,23.12
2023-10-30T09:47:44.863Z,23.12
2023-10-30T09:47:56.451Z,23.12
2023-10-30T09:48:07.743Z,23.13
2023-10-30T09:48:19.306Z,23.13
2023-10-30T09:48:30.597Z,23.13
2023-10-30T09:48:42.154Z,23.14
2023-10-30T09:48:53.485Z,23.13
2023-10-30T09:49:05.140Z,23.14
2023-10-30T09:49:16.397Z,23.13
2023-10-30T09:49:27.920Z,23.14
2023-10-30T09:49:39.184Z,23.14
2023-10-30T09:49:50.839Z,23.14
2023-10-30T09:50:02.136Z,23.15
2023-10-30T09:50:13.648Z,23.15
2023-10-30T09:50:24.923Z,23.15
2023-10-30T09:50:36.447Z,23.15
2023-10-30T09:50:47.734Z,23.15
2023-10-30T09:50:59.264Z,23.15
2023-10-30T09:51:10.562Z,23.16
2023-10-30T09:51:22.099Z,23.16
2023-10-30T09:51:33.380Z,23.16
2023-10-30T09:51:45.039Z,23.17
2023-10-30T09:51:56.384Z,23.17
2023-10-30T09:52:07.916Z,23.17
2023-10-30T09:52:19.178Z,23.17
2023-10-30T09:52:30.690Z,23.17
2023-10-30T09:52:41.949Z,23.18
2023-10-30T09:52:53.485Z,23.18
2023-10-30T09:53:04.755Z,23.18
2023-10-30T09:53:16.303Z,23.18
2023-10-30T09:53:27.598Z,23.18
2023-10-30T09:53:39.131Z,23.19
2023-10-30T09:53:50.407Z,23.19
2023-10-30T09:54:01.927Z,23.19
2023-10-30T09:54:13.292Z,23.20
2023-10-30T09:54:24.839Z,23.20
2023-10-30T09:54:36.129Z,23.20
2023-10-30T09:54:48.088Z,23.20
2023-10-30T09:55:00.753Z,23.21
2023-10-30T09:55:10.072Z,23.22
2023-10-30T09:55:21.676Z,23.21
2023-10-30T09:55:32.955Z,23.21
2023-10-30T09:55:44.476Z,23.21
2023-10-30T09:55:55.740Z,23.22
2023-10-30T09:56:07.280Z,23.22
2023-10-30T09:56:18.526Z,23.22
2023-10-30T09:56:30.057Z,23.23
2023-10-30T09:56:41.352Z,23.22
2023-10-30T09:56:52.935Z,23.23
2023-10-30T09:57:04.196Z,23.23
2023-10-30T09:57:15.719Z,23.23
2023-10-30T09:57:27.000Z,23.24
2023-10-30T09:57:38.530Z,23.23
2023-10-30T09:57:49.836Z,23.24
2023-10-30T09:58:01.425Z,23.24
2023-10-30T09:58:12.664Z,23.24
2023-10-30T09:58:24.322Z,23.25
2023-10-30T09:58:35.607Z,23.25
2023-10-30T09:58:47.111Z,23.25
2023-10-30T09:58:58.372Z,23.25
2023-10-30T09:59:09.901Z,23.26
2023-10-30T09:59:21.164Z,23.25
2023-10-30T09:59:32.782Z,23.26
2023-10-30T09:59:44.052Z,23.26
2023-10-30T09:59:55.589Z,23.26
2023-10-30T10:00:06.857Z,23.26
2023-10-30T10:00:18.398Z,23.26
2023-10-30T10:00:29.722Z,23.27
2023-10-30T10:00:41.298Z,23.27
2023-10-30T10:00:52.720Z,23.27
2023-10-30T10:01:04.371Z,23.28
2023-10-30T10:01:15.931Z,23.27
2023-10-30T10:01:27.733Z,23.28
2023-10-30T10:01:39.199Z,23.28
2023-10-30T10:01:50.890Z,23.29
2023-10-30T10:02:02.337Z,23.28
2023-10-30T10:02:13.934Z,23.29
2023-10-30T10:02:25.293Z,23.28
2023-10-30T10:02:36.995Z,23.29
2023-10-30T10:02:48.510Z,23.29
2023-10-30T10:03:00.388Z,23.29
2023-10-30T10:03:11.883Z,23.29
2023-10-30T10:03:23.511Z,23.30
2023-10-30T10:03:34.985Z,23.29
2023-10-30T10:03:46.686Z,23.30
2023-10-30T10:03:58.122Z,23.30
2023-10-30T10:04:09.805Z,23.30
2023-10-30T10:04:21.430Z,23.31
2023-10-30T10:04:33.098Z,23.31
2023-10-30T10:04:44.380Z,23.31
2023-10-30T10:04:55.900Z,23.31
2023-10-30T10:05:07.174Z,23.32
2023-10-30T10:05:18.694Z,23.32
2023-10-30T10:05:29.961Z,23.32
2023-10-30T10:05:41.593Z,23.32
2023-10-30T10:05:52.865Z,23.32
2023-10-30T10:06:04.427Z,23.33
2023-10-30T10:06:15.703Z,23.33
2023-10-30T10:06:27.282Z,23.33
2023-10-30T10:06:38.544Z,23.33
2023-10-30T10:06:50.180Z,23.33
2023-10-30T10:07:01.528Z,23.34
2023-10-30T10:07:13.085Z,23.34
2023-10-30T10:07:24.354Z,23.34
2023-10-30T10:07:35.900Z,23.35
2023-10-30T10:07:47.165Z,23.35
2023-10-30T10:07:58.678Z,23.35
2023-10-30T10:08:09.965Z,23.34
2023-10-30T10:08:21.497Z,23.36
2023-10-30T10:08:32.792Z,23.36
2023-10-30T10:08:44.335Z,23.36
2023-10-30T10:08:55.596Z,23.37
2023-10-30T10:09:07.134Z,23.37
2023-10-30T10:09:18.593Z,23.36
2023-10-30T10:09:30.175Z,23.37
2023-10-30T10:09:41.531Z,23.37
2023-10-30T10:09:53.112Z,23.39
2023-10-30T10:10:04.437Z,23.38
2023-10-30T10:10:15.976Z,23.39
2023-10-30T10:10:27.245Z,23.39
2023-10-30T10:10:38.795Z,23.39
2023-10-30T10:10:50.845Z,23.40
2023-10-30T10:11:02.364Z,23.39
2023-10-30T10:11:13.690Z,23.39
2023-10-30T10:11:25.235Z,23.40
2023-10-30T10:11:36.500Z,23.41
2023-10-30T10:11:48.033Z,23.40
2023-10-30T10:11:59.335Z,23.40
2023-10-30T10:12:10.934Z,23.40
2023-10-30T10:12:22.372Z,23.40
2023-10-30T10:12:34.099Z,23.41
2023-10-30T10:12:45.588Z,23.41
2023-10-30T10:12:57.252Z,23.41
2023-10-30T10:13:08.707Z,23.41
2023-10-30T10:13:20.438Z,23.42
2023-10-30T10:13:31.927Z,23.41
2023-10-30T10:13:57.611Z,23.43
2023-10-30T10:14:05.394Z,23.41
2023-10-30T10:14:07.729Z,23.41
2023-10-30T10:14:19.194Z,23.41
2023-10-30T10:14:30.875Z,23.42